createdAt,value
2022-11-20T00:01:11.158Z,10.80
2022-11-20T00:03:38.251Z,10.60
2022-11-20T00:06:06.716Z,10.80
2022-11-20T00:08:33.434Z,10.77
2022-11-20T00:11:05.326Z,10.60
2022-11-20T00:13:32.176Z,10.98
2022-11-20T00:15:59.406Z,11.47
2022-11-20T00:18:26.158Z,11.25
2022-11-20T00:20:53.054Z,12.20
2022-11-20T00:23:20.074Z,11.27
2022-11-20T00:25:46.733Z,11.88
2022-11-20T00:28:14.773Z,11.83
2022-11-20T00:30:41.554Z,12.23
2022-11-20T00:33:08.177Z,11.38
2022-11-20T00:35:34.892Z,11.43
2022-11-20T00:38:01.564Z,11.48
2022-11-20T00:40:28.249Z,10.50
2022-11-20T00:42:54.901Z,10.95
2022-11-20T00:45:22.908Z,11.50
2022-11-20T00:47:49.581Z,10.88
2022-11-20T00:50:16.226Z,11.25
2022-11-20T00:52:42.934Z,11.60
2022-11-20T00:55:09.646Z,11.32
2022-11-20T00:57:36.370Z,11.10
2022-11-20T01:00:03.924Z,11.55
2022-11-20T01:02:31.915Z,12.02
2022-11-20T01:04:58.756Z,11.57
2022-11-20T01:07:25.449Z,11.82
2022-11-20T01:09:52.084Z,10.85
2022-11-20T01:12:18.760Z,12.13
2022-11-20T01:14:45.494Z,11.02
2022-11-20T01:17:12.150Z,11.43
2022-11-20T01:19:40.182Z,11.40
2022-11-20T01:22:06.794Z,12.40
2022-11-20T01:24:33.566Z,11.52
2022-11-20T01:27:00.193Z,11.57
2022-11-20T01:29:26.873Z,11.27
2022-11-20T01:31:54.129Z,11.73
2022-11-20T01:34:22.244Z,11.43
2022-11-20T01:36:51.059Z,10.80
2022-11-20T01:39:20.096Z,10.95
2022-11-20T01:41:48.293Z,11.83
2022-11-20T01:44:17.261Z,10.60
2022-11-20T01:46:59.356Z,11.48
2022-11-20T01:49:30.860Z,11.38
2022-11-20T01:52:02.565Z,10.98
2022-11-20T01:54:36.255Z,11.53
2022-11-20T01:57:05.102Z,10.07
2022-11-20T01:59:31.998Z,10.93
2022-11-20T02:01:59.052Z,11.25
2022-11-20T02:04:26.034Z,11.18
2022-11-20T02:07:00.140Z,11.00
2022-11-20T02:09:27.241Z,11.57
2022-11-20T02:11:54.586Z,11.48
2022-11-20T02:14:22.790Z,11.07
2022-11-20T02:16:50.493Z,12.20
2022-11-20T02:19:24.259Z,11.70
2022-11-20T02:22:00.937Z,10.90
2022-11-20T02:24:29.316Z,11.35
2022-11-20T02:27:00.546Z,11.02
2022-11-20T02:29:31.962Z,10.80
2022-11-20T02:32:01.220Z,10.97
2022-11-20T02:34:27.869Z,11.07
2022-11-20T02:36:54.690Z,12.68
2022-11-20T02:39:24.082Z,10.18
2022-11-20T02:41:53.856Z,11.07
2022-11-20T02:44:20.634Z,10.63
2022-11-20T02:46:47.301Z,10.93
2022-11-20T02:49:13.932Z,11.52
2022-11-20T02:51:40.670Z,11.10
2022-11-20T02:54:07.304Z,9.25
2022-11-20T02:56:33.990Z,10.40
2022-11-20T02:59:02.004Z,11.50
2022-11-20T03:01:28.728Z,11.13
2022-11-20T03:03:55.362Z,10.20
2022-11-20T03:06:21.988Z,11.13
2022-11-20T03:08:48.773Z,10.63
2022-11-20T03:11:15.456Z,11.10
2022-11-20T03:13:42.138Z,10.93
2022-11-20T03:16:13.203Z,13.15
2022-11-20T03:18:40.600Z,10.95
2022-11-20T03:21:07.840Z,11.33
2022-11-20T03:23:35.151Z,11.02
2022-11-20T03:26:12.173Z,11.55
2022-11-20T03:28:39.202Z,10.70
2022-11-20T03:31:08.434Z,10.82
2022-11-20T03:33:36.445Z,11.07
2022-11-20T03:36:04.467Z,11.63
2022-11-20T03:38:36.225Z,10.73
2022-11-20T03:41:04.569Z,10.82
2022-11-20T03:43:31.664Z,11.85
2022-11-20T03:45:58.726Z,10.33
2022-11-20T03:48:25.723Z,10.40
2022-11-20T03:50:54.359Z,10.63
2022-11-20T03:53:21.386Z,10.15
2022-11-20T03:55:52.068Z,10.85
2022-11-20T03:58:18.747Z,10.70
2022-11-20T04:00:45.537Z,10.55
2022-11-20T04:03:12.176Z,11.75
2022-11-20T04:05:38.864Z,10.30
2022-11-20T04:08:07.067Z,11.70
2022-11-20T04:10:33.703Z,11.27
2022-11-20T04:13:00.502Z,11.00
2022-11-20T04:15:27.169Z,10.93
2022-11-20T04:17:55.267Z,10.15
2022-11-20T04:20:22.069Z,10.63
2022-11-20T04:22:48.729Z,10.67
2022-11-20T04:25:16.722Z,11.18
2022-11-20T04:27:43.372Z,11.15
2022-11-20T04:30:11.334Z,11.38
2022-11-20T04:32:37.991Z,11.20
2022-11-20T04:35:05.241Z,9.90
2022-11-20T04:37:31.938Z,9.95
2022-11-20T04:39:58.589Z,11.50
2022-11-20T04:42:26.635Z,11.77
2022-11-20T04:44:53.269Z,10.70
2022-11-20T04:47:19.906Z,11.50
2022-11-20T04:49:46.643Z,11.85
2022-11-20T04:52:13.431Z,10.80
2022-11-20T04:54:40.121Z,11.07
2022-11-20T04:57:11.357Z,11.55
2022-11-20T04:59:42.414Z,11.33
2022-11-20T05:02:09.314Z,11.02
2022-11-20T05:04:35.937Z,11.63
2022-11-20T05:07:02.655Z,11.15
2022-11-20T05:09:29.374Z,10.93
2022-11-20T05:11:56.020Z,10.60
2022-11-20T05:14:22.686Z,11.38
2022-11-20T05:16:50.722Z,10.80
2022-11-20T05:19:17.434Z,11.55
2022-11-20T05:21:44.129Z,11.90
2022-11-20T05:24:10.917Z,11.70
2022-11-20T05:26:37.655Z,10.57
2022-11-20T05:29:04.403Z,11.45
2022-11-20T05:31:31.057Z,10.88
2022-11-20T05:33:59.075Z,11.73
2022-11-20T05:36:25.972Z,10.30
2022-11-20T05:38:56.675Z,11.05
2022-11-20T05:41:26.639Z,11.57
2022-11-20T05:43:53.330Z,12.32
2022-11-20T05:46:27.843Z,11.88
2022-11-20T05:48:56.012Z,11.37
2022-11-20T05:51:24.731Z,11.88
2022-11-20T05:53:51.422Z,11.13
2022-11-20T05:56:20.892Z,11.82
2022-11-20T05:58:48.481Z,11.75
2022-11-20T06:01:17.057Z,11.77
2022-11-20T06:03:44.131Z,11.85
2022-11-20T06:06:10.901Z,12.43
2022-11-20T06:08:38.933Z,11.48
2022-11-20T06:11:06.874Z,10.85
2022-11-20T06:13:37.937Z,11.03
2022-11-20T06:16:07.763Z,10.82
2022-11-20T06:18:34.403Z,10.45
2022-11-20T06:21:02.737Z,11.02
2022-11-20T06:23:30.617Z,11.73
2022-11-20T06:26:01.651Z,12.53
2022-11-20T06:28:28.280Z,11.60
2022-11-20T06:30:54.921Z,12.52
2022-11-20T06:33:21.564Z,10.27
2022-11-20T06:35:48.312Z,11.90
2022-11-20T06:38:15.019Z,11.03
2022-11-20T06:40:41.978Z,11.95
2022-11-20T06:43:10.140Z,12.05
2022-11-20T06:45:37.084Z,11.60
2022-11-20T06:48:04.495Z,11.75
2022-11-20T06:50:31.296Z,11.90
2022-11-20T06:53:01.056Z,11.88
2022-11-20T06:55:27.664Z,11.10
2022-11-20T06:57:56.049Z,12.23
2022-11-20T07:00:24.548Z,11.80
2022-11-20T07:02:51.207Z,11.40
2022-11-20T07:05:18.811Z,10.50
2022-11-20T07:07:45.472Z,11.43
2022-11-20T07:10:12.783Z,11.05
2022-11-20T07:12:39.436Z,12.45
2022-11-20T07:15:07.415Z,11.07
2022-11-20T07:17:35.417Z,11.35
2022-11-20T07:20:02.129Z,11.90
2022-11-20T07:22:28.803Z,11.55
2022-11-20T07:24:55.452Z,10.93
2022-11-20T07:27:22.178Z,11.00
2022-11-20T07:29:48.846Z,10.98
2022-11-20T07:32:15.592Z,12.20
2022-11-20T07:34:43.604Z,11.00
2022-11-20T07:37:10.629Z,11.98
2022-11-20T07:39:37.467Z,10.97
2022-11-20T07:42:04.199Z,13.07
2022-11-20T07:44:30.855Z,13.13
2022-11-20T07:46:57.504Z,11.25
2022-11-20T07:49:24.435Z,11.27
2022-11-20T07:51:52.622Z,11.17
2022-11-20T07:54:19.335Z,11.25
2022-11-20T07:56:46.006Z,10.95
2022-11-20T07:59:12.759Z,10.93
2022-11-20T08:01:39.444Z,10.50
2022-11-20T08:04:06.117Z,10.10
2022-11-20T08:06:33.147Z,11.52
2022-11-20T08:09:01.227Z,11.90
2022-11-20T08:11:27.921Z,10.82
2022-11-20T08:13:54.576Z,11.82
2022-11-20T08:16:21.212Z,11.20
2022-11-20T08:18:47.872Z,12.65
2022-11-20T08:21:14.532Z,12.07
2022-11-20T08:23:41.187Z,11.60
2022-11-20T08:26:09.227Z,11.98
2022-11-20T08:28:35.990Z,12.30
2022-11-20T08:31:03.808Z,11.93
2022-11-20T08:33:31.187Z,12.13
2022-11-20T08:36:00.228Z,12.80
2022-11-20T08:38:26.926Z,11.18
2022-11-20T08:40:57.535Z,11.90
2022-11-20T08:43:25.629Z,12.15
2022-11-20T08:45:52.282Z,13.80
2022-11-20T08:48:19.028Z,12.20
2022-11-20T08:50:45.644Z,12.15
2022-11-20T08:53:12.420Z,12.33
2022-11-20T08:55:43.388Z,12.48
2022-11-20T08:58:10.087Z,11.98
2022-11-20T09:00:38.147Z,11.90
2022-11-20T09:03:04.856Z,12.45
2022-11-20T09:05:31.512Z,13.77
2022-11-20T09:07:58.335Z,12.98
2022-11-20T09:10:25.363Z,12.35
2022-11-20T09:12:52.202Z,12.23
2022-11-20T09:15:19.274Z,12.02
2022-11-20T09:17:52.814Z,11.57
2022-11-20T09:20:19.760Z,12.48
2022-11-20T09:22:46.530Z,12.35
2022-11-20T09:25:13.157Z,12.23
2022-11-20T09:27:39.856Z,13.13
2022-11-20T09:30:07.935Z,11.63
2022-11-20T09:32:34.611Z,13.02
2022-11-20T09:35:02.793Z,14.07
2022-11-20T09:37:29.456Z,14.30
2022-11-20T09:39:56.121Z,14.00
2022-11-20T09:42:33.870Z,14.03
2022-11-20T09:45:16.499Z,15.35
2022-11-20T09:47:58.770Z,14.77
2022-11-20T09:50:33.000Z,13.07
2022-11-20T09:53:17.094Z,13.70
2022-11-20T09:55:43.929Z,13.53
2022-11-20T09:58:19.310Z,13.98
2022-11-20T10:00:49.414Z,13.57
2022-11-20T10:03:23.125Z,14.80
2022-11-20T10:05:54.962Z,14.68
2022-11-20T10:08:25.050Z,13.70
2022-11-20T10:10:57.652Z,13.43
2022-11-20T10:13:40.744Z,13.70
2022-11-20T10:16:24.935Z,14.50
2022-11-20T10:19:04.610Z,13.50
2022-11-20T10:21:42.730Z,13.73
2022-11-20T10:24:43.234Z,14.00
2022-11-20T10:27:24.260Z,14.70
2022-11-20T10:30:00.572Z,13.70
2022-11-20T10:32:35.139Z,15.40
2022-11-20T10:35:05.363Z,14.97
2022-11-20T10:37:37.821Z,14.10
2022-11-20T10:40:19.225Z,16.52
2022-11-20T10:42:49.811Z,16.88
2022-11-20T10:45:22.794Z,17.98
2022-11-20T10:47:49.809Z,18.70
2022-11-20T10:50:22.412Z,18.80
2022-11-20T10:53:03.760Z,19.65
2022-11-20T10:55:40.051Z,18.25
2022-11-20T10:58:14.487Z,17.00
2022-11-20T11:00:41.855Z,15.77
2022-11-20T11:03:23.438Z,14.98
2022-11-20T11:05:54.867Z,14.93
2022-11-20T11:08:23.755Z,16.42
2022-11-20T11:10:54.313Z,15.48
2022-11-20T11:13:22.269Z,14.70
2022-11-20T11:15:48.917Z,17.45
2022-11-20T11:18:24.820Z,17.33
2022-11-20T11:20:52.301Z,17.25
2022-11-20T11:23:32.367Z,16.48
2022-11-20T11:26:00.730Z,16.63
2022-11-20T11:28:28.406Z,15.77
2022-11-20T11:30:56.147Z,16.33
2022-11-20T11:33:24.499Z,16.58
2022-11-20T11:35:53.431Z,16.92
2022-11-20T11:38:23.727Z,15.40
2022-11-20T11:40:54.914Z,16.45
2022-11-20T11:43:24.595Z,16.55
2022-11-20T11:45:54.598Z,15.68
2022-11-20T11:48:21.909Z,14.38
2022-11-20T11:50:50.326Z,14.33
2022-11-20T11:53:18.915Z,12.18
2022-11-20T11:55:50.989Z,14.48
2022-11-20T11:58:34.227Z,14.10
2022-11-20T12:01:08.837Z,13.15
2022-11-20T12:03:37.500Z,13.80
2022-11-20T12:06:11.332Z,12.95
2022-11-20T12:08:45.357Z,12.40
2022-11-20T12:11:15.237Z,11.18
2022-11-20T12:13:49.381Z,10.43
2022-11-20T12:16:20.139Z,12.77
2022-11-20T12:18:48.992Z,12.90
2022-11-20T12:21:31.851Z,13.73
2022-11-20T12:24:21.813Z,12.85
2022-11-20T12:27:05.617Z,13.50
2022-11-20T12:29:43.806Z,14.73
2022-11-20T12:32:39.119Z,15.13
2022-11-20T12:35:19.905Z,16.30
2022-11-20T12:37:57.323Z,15.52
2022-11-20T12:40:35.245Z,15.98
2022-11-20T12:43:12.590Z,16.10
2022-11-20T12:46:22.840Z,14.93
2022-11-20T12:49:19.275Z,20.08
2022-11-20T12:52:01.656Z,26.50
2022-11-20T12:54:47.010Z,18.75
2022-11-20T12:57:21.326Z,14.10
2022-11-20T12:59:58.984Z,15.40
2022-11-20T13:02:34.505Z,14.70
2022-11-20T13:05:13.658Z,14.13
2022-11-20T13:07:41.820Z,14.43
2022-11-20T13:10:20.116Z,14.07
2022-11-20T13:12:51.306Z,13.50
2022-11-20T13:15:32.457Z,12.95
2022-11-20T13:18:02.467Z,14.65
2022-11-20T13:20:30.859Z,14.57
2022-11-20T13:22:58.057Z,14.70
2022-11-20T13:25:25.896Z,14.88
2022-11-20T13:27:53.824Z,14.30
2022-11-20T13:30:22.266Z,14.43
2022-11-20T13:32:51.316Z,14.05
2022-11-20T13:35:28.728Z,15.00
2022-11-20T13:38:04.670Z,12.68
2022-11-20T13:40:31.352Z,13.98
2022-11-20T13:43:08.144Z,15.80
2022-11-20T13:45:34.841Z,12.60
2022-11-20T13:48:04.796Z,11.17
2022-11-20T13:50:48.209Z,10.07
2022-11-20T13:53:44.012Z,10.70
2022-11-20T13:56:20.369Z,9.57
2022-11-20T13:59:03.706Z,9.80
2022-11-20T14:01:32.703Z,10.03
2022-11-20T14:04:07.466Z,9.10
2022-11-20T14:06:42.041Z,8.73
2022-11-20T14:09:12.213Z,8.38
2022-11-20T14:11:47.497Z,8.77
2022-11-20T14:14:17.304Z,9.53
2022-11-20T14:16:44.040Z,8.73
2022-11-20T14:19:30.714Z,11.07
2022-11-20T14:22:16.573Z,9.48
2022-11-20T14:24:43.275Z,9.32
2022-11-20T14:27:21.450Z,9.93
2022-11-20T14:29:50.400Z,9.93
2022-11-20T14:32:19.105Z,9.90
2022-11-20T14:34:48.241Z,9.82
2022-11-20T14:37:20.918Z,9.98
2022-11-20T14:39:51.713Z,12.60
2022-11-20T14:42:20.782Z,11.68
2022-11-20T14:44:49.083Z,13.00
2022-11-20T14:47:19.768Z,12.70
2022-11-20T14:49:47.136Z,12.40
2022-11-20T14:52:17.492Z,13.83
2022-11-20T14:54:46.488Z,13.57
2022-11-20T14:57:23.691Z,13.63
2022-11-20T14:59:50.576Z,13.77
2022-11-20T15:02:17.597Z,12.43
2022-11-20T15:04:48.496Z,11.67
2022-11-20T15:07:26.732Z,11.93
2022-11-20T15:10:04.656Z,9.82
2022-11-20T15:12:32.156Z,10.57
2022-11-20T15:14:59.513Z,10.07
2022-11-20T15:17:26.235Z,9.57
2022-11-20T15:19:54.992Z,9.00
2022-11-20T15:22:21.644Z,9.00
2022-11-20T15:24:49.660Z,8.43
2022-11-20T15:27:16.396Z,8.07
2022-11-20T15:29:43.443Z,8.20
2022-11-20T15:32:13.428Z,8.13
2022-11-20T15:34:40.653Z,8.23
2022-11-20T15:37:07.336Z,8.60
2022-11-20T15:39:33.945Z,6.97
2022-11-20T15:42:01.984Z,8.90
2022-11-20T15:44:28.614Z,9.00
2022-11-20T15:46:55.301Z,9.40
2022-11-20T15:49:22.113Z,10.88
2022-11-20T15:51:50.292Z,11.02
2022-11-20T15:54:19.021Z,9.70
2022-11-20T15:56:45.687Z,10.18
2022-11-20T15:59:13.792Z,9.65
2022-11-20T16:01:41.381Z,8.68
2022-11-20T16:04:11.186Z,9.85
2022-11-20T16:06:37.850Z,9.83
2022-11-20T16:09:04.552Z,8.93
2022-11-20T16:11:32.387Z,7.57
2022-11-20T16:13:59.153Z,7.82
2022-11-20T16:16:31.857Z,7.20
2022-11-20T16:18:59.015Z,8.33
2022-11-20T16:21:25.689Z,8.23
2022-11-20T16:23:52.376Z,9.45
2022-11-20T16:26:19.034Z,9.30
2022-11-20T16:28:45.982Z,9.68
2022-11-20T16:31:15.275Z,9.67
2022-11-20T16:33:43.880Z,9.88
2022-11-20T16:36:11.901Z,12.13
2022-11-20T16:38:38.804Z,11.00
2022-11-20T16:41:06.927Z,10.43
2022-11-20T16:43:33.661Z,9.90
2022-11-20T16:46:04.465Z,9.60
2022-11-20T16:48:31.248Z,10.50
2022-11-20T16:50:59.325Z,10.40
2022-11-20T16:53:26.403Z,10.85
2022-11-20T16:55:53.045Z,12.03
2022-11-20T16:58:19.731Z,11.10
2022-11-20T17:00:51.387Z,10.00
2022-11-20T17:03:18.680Z,9.63
2022-11-20T17:05:45.441Z,9.25
2022-11-20T17:08:13.484Z,9.83
2022-11-20T17:10:40.102Z,9.45
2022-11-20T17:13:06.802Z,9.40
2022-11-20T17:15:33.476Z,8.73
2022-11-20T17:18:00.149Z,9.05
2022-11-20T17:20:26.872Z,10.20
2022-11-20T17:22:53.566Z,9.15
2022-11-20T17:25:21.587Z,8.75
2022-11-20T17:27:48.270Z,8.85
2022-11-20T17:30:15.378Z,7.93
2022-11-20T17:32:42.039Z,7.83
2022-11-20T17:35:09.137Z,8.70
2022-11-20T17:37:35.756Z,8.93
2022-11-20T17:40:02.422Z,9.43
2022-11-20T17:42:30.629Z,9.65
2022-11-20T17:44:57.278Z,8.40
2022-11-20T17:47:24.187Z,9.82
2022-11-20T17:49:50.805Z,9.20
2022-11-20T17:52:17.457Z,8.35
2022-11-20T17:54:44.162Z,9.13
2022-11-20T17:57:10.872Z,9.37
2022-11-20T17:59:39.574Z,9.05
2022-11-20T18:02:06.260Z,10.40
2022-11-20T18:04:33.192Z,10.63
2022-11-20T18:06:59.878Z,15.30
2022-11-20T18:09:26.639Z,13.20
2022-11-20T18:11:53.365Z,10.68
2022-11-20T18:14:20.696Z,13.70
2022-11-20T18:16:51.403Z,10.35
2022-11-20T18:19:20.165Z,16.48
2022-11-20T18:21:47.279Z,20.23
2022-11-20T18:24:14.408Z,20.42
2022-11-20T18:26:44.234Z,14.32
2022-11-20T18:29:12.056Z,14.48
2022-11-20T18:31:39.030Z,12.65
2022-11-20T18:34:07.518Z,11.27
2022-11-20T18:36:34.374Z,12.32
2022-11-20T18:39:01.242Z,10.52
2022-11-20T18:41:30.805Z,11.00
2022-11-20T18:43:57.860Z,10.10
2022-11-20T18:46:24.557Z,10.43
2022-11-20T18:48:51.930Z,10.57
2022-11-20T18:51:19.909Z,11.30
2022-11-20T18:53:47.629Z,11.50
2022-11-20T18:56:14.448Z,11.55
2022-11-20T18:58:41.230Z,10.87
2022-11-20T19:01:08.459Z,11.85
2022-11-20T19:03:35.274Z,12.52
2022-11-20T19:06:02.094Z,11.93
2022-11-20T19:08:30.187Z,11.73
2022-11-20T19:11:05.889Z,11.30
2022-11-20T19:13:32.867Z,11.60
2022-11-20T19:16:02.313Z,10.75
2022-11-20T19:18:28.954Z,10.95
2022-11-20T19:20:55.620Z,10.95
2022-11-20T19:23:23.275Z,10.97
2022-11-20T19:25:51.289Z,12.85
2022-11-20T19:28:18.075Z,12.25
2022-11-20T19:30:44.731Z,13.93
2022-11-20T19:33:11.556Z,14.20
2022-11-20T19:35:38.232Z,12.23
2022-11-20T19:38:05.756Z,12.50
2022-11-20T19:40:32.466Z,13.68
2022-11-20T19:43:00.461Z,14.00
2022-11-20T19:45:27.256Z,14.00
2022-11-20T19:48:07.377Z,13.00
2022-11-20T19:50:34.974Z,13.07
2022-11-20T19:53:01.605Z,12.02
2022-11-20T19:55:28.330Z,12.10
2022-11-20T19:57:56.094Z,12.55
2022-11-20T20:00:29.695Z,11.13
2022-11-20T20:02:58.979Z,10.48
2022-11-20T20:05:25.630Z,11.25
2022-11-20T20:07:52.843Z,10.73
2022-11-20T20:10:19.642Z,11.02
2022-11-20T20:12:46.449Z,10.53
2022-11-20T20:15:13.142Z,10.45
2022-11-20T20:17:41.169Z,10.00
2022-11-20T20:20:08.745Z,10.93
2022-11-20T20:22:35.439Z,10.73
2022-11-20T20:25:02.078Z,10.20
2022-11-20T20:27:28.804Z,10.27
2022-11-20T20:29:55.874Z,10.27
2022-11-20T20:32:22.587Z,10.23
2022-11-20T20:34:50.815Z,10.57
2022-11-20T20:37:17.506Z,11.37
2022-11-20T20:39:44.223Z,10.57
2022-11-20T20:42:10.878Z,10.50
2022-11-20T20:44:37.540Z,10.68
2022-11-20T20:47:04.339Z,9.77
2022-11-20T20:49:33.033Z,9.90
2022-11-20T20:52:01.064Z,9.73
2022-11-20T20:54:33.045Z,9.63
2022-11-20T20:57:01.021Z,9.52
2022-11-20T20:59:27.706Z,9.38
2022-11-20T21:01:54.419Z,9.23
2022-11-20T21:04:21.165Z,9.50
2022-11-20T21:06:47.833Z,9.77
2022-11-20T21:09:15.894Z,8.63
2022-11-20T21:11:42.535Z,9.02
2022-11-20T21:14:09.430Z,9.17
2022-11-20T21:16:36.169Z,8.70
2022-11-20T21:19:02.888Z,9.13
2022-11-20T21:21:29.682Z,8.95
2022-11-20T21:23:56.465Z,9.07
2022-11-20T21:26:24.688Z,8.40
2022-11-20T21:28:51.357Z,9.13
2022-11-20T21:31:19.402Z,8.52
2022-11-20T21:33:47.234Z,8.43
2022-11-20T21:36:15.726Z,7.57
2022-11-20T21:38:42.962Z,7.63
2022-11-20T21:41:11.928Z,7.32
2022-11-20T21:43:40.464Z,7.38
2022-11-20T21:46:08.665Z,6.72
2022-11-20T21:48:36.769Z,7.93
2022-11-20T21:51:06.779Z,7.17
2022-11-20T21:53:37.344Z,7.05
2022-11-20T21:56:05.051Z,6.47
2022-11-20T21:58:31.762Z,5.47
2022-11-20T22:00:59.851Z,5.95
2022-11-20T22:03:26.531Z,6.23
2022-11-20T22:05:54.583Z,5.43
2022-11-20T22:08:21.205Z,5.28
2022-11-20T22:10:54.073Z,4.97
2022-11-20T22:13:20.734Z,4.80
2022-11-20T22:16:00.379Z,4.30
2022-11-20T22:18:29.356Z,3.60
2022-11-20T22:20:55.991Z,3.80
2022-11-20T22:23:22.621Z,3.03
2022-11-20T22:25:50.417Z,3.53
2022-11-20T22:28:17.081Z,3.13
2022-11-20T22:30:43.738Z,3.13
2022-11-20T22:33:13.619Z,3.30
2022-11-20T22:35:42.077Z,2.63
2022-11-20T22:38:08.774Z,2.92
2022-11-20T22:40:35.504Z,3.00
2022-11-20T22:43:02.175Z,2.72
2022-11-20T22:45:28.856Z,2.95
2022-11-20T22:47:55.482Z,2.35
2022-11-20T22:50:22.122Z,2.60
2022-11-20T22:52:50.244Z,2.20
2022-11-20T22:55:16.949Z,1.92
2022-11-20T22:57:43.621Z,1.88
2022-11-20T23:00:11.452Z,1.50
2022-11-20T23:02:43.747Z,1.58
2022-11-20T23:05:10.486Z,1.40
2022-11-20T23:07:40.836Z,1.77
2022-11-20T23:10:09.727Z,1.27
2022-11-20T23:12:36.447Z,1.00
2022-11-20T23:15:03.225Z,1.58
2022-11-20T23:17:29.906Z,1.23
2022-11-20T23:19:56.558Z,1.17
2022-11-20T23:22:23.226Z,1.35
2022-11-20T23:24:49.900Z,1.35
2022-11-20T23:27:19.797Z,0.98
2022-11-20T23:29:46.752Z,1.03
2022-11-20T23:32:13.430Z,0.95
2022-11-20T23:34:40.086Z,1.23
2022-11-20T23:37:06.718Z,1.00
2022-11-20T23:39:33.535Z,1.13
2022-11-20T23:42:00.272Z,1.10
2022-11-20T23:44:28.861Z,1.15
2022-11-20T23:46:55.812Z,1.25
2022-11-20T23:49:22.505Z,1.02
2022-11-20T23:51:49.161Z,1.33
2022-11-20T23:54:15.813Z,2.00
2022-11-20T23:56:42.530Z,1.52
2022-11-20T23:59:09.182Z,1.83
